sensor_id;sensor_type;location;lat;lon;timestamp;temperature;humidity
8463;DHT22;4268;52.506;13.462;2023-02-13T00:00:23;8.40;99.90
8463;DHT22;4268;52.506;13.462;2023-02-13T00:02:49;8.40;99.90
8463;DHT22;4268;52.506;13.462;2023-02-13T00:05:15;8.40;99.90
8463;DHT22;4268;52.506;13.462;2023-02-13T00:07:41;8.40;99.90
8463;DHT22;4268;52.506;13.462;2023-02-13T00:10:08;8.40;99.90
8463;DHT22;4268;52.506;13.462;2023-02-13T00:12:34;8.40;99.90
8463;DHT22;4268;52.506;13.462;2023-02-13T00:14:59;8.40;99.90
8463;DHT22;4268;52.506;13.462;2023-02-13T00:17:26;8.40;99.90
8463;DHT22;4268;52.506;13.462;2023-02-13T00:19:51;8.30;99.90
8463;DHT22;4268;52.506;13.462;2023-02-13T00:22:17;8.30;99.90
8463;DHT22;4268;52.506;13.462;2023-02-13T00:24:42;8.30;99.90
8463;DHT22;4268;52.506;13.462;2023-02-13T00:27:08;8.30;99.90
8463;DHT22;4268;52.506;13.462;2023-02-13T00:29:33;8.30;99.90
8463;DHT22;4268;52.506;13.462;2023-02-13T00:31:59;8.30;99.90
8463;DHT22;4268;52.506;13.462;2023-02-13T00:34:25;8.30;99.90
8463;DHT22;4268;52.506;13.462;2023-02-13T00:36:51;8.20;99.90
8463;DHT22;4268;52.506;13.462;2023-02-13T00:39:16;8.40;99.90
8463;DHT22;4268;52.506;13.462;2023-02-13T00:41:42;8.30;99.90
8463;DHT22;4268;52.506;13.462;2023-02-13T00:44:08;8.30;99.90
8463;DHT22;4268;52.506;13.462;2023-02-13T00:46:34;7.90;99.90
8463;DHT22;4268;52.506;13.462;2023-02-13T00:49:00;8.20;99.90
8463;DHT22;4268;52.506;13.462;2023-02-13T00:51:26;8.20;99.90
8463;DHT22;4268;52.506;13.462;2023-02-13T00:53:51;8.20;99.90
8463;DHT22;4268;52.506;13.462;2023-02-13T00:56:17;8.20;99.90
8463;DHT22;4268;52.506;13.462;2023-02-13T00:58:42;8.20;99.90
8463;DHT22;4268;52.506;13.462;2023-02-13T01:01:08;8.20;99.90
8463;DHT22;4268;52.506;13.462;2023-02-13T01:03:33;8.20;99.90
8463;DHT22;4268;52.506;13.462;2023-02-13T01:05:58;8.20;99.90
8463;DHT22;4268;52.506;13.462;2023-02-13T01:08:24;8.20;99.90
8463;DHT22;4268;52.506;13.462;2023-02-13T01:10:52;8.20;99.90
8463;DHT22;4268;52.506;13.462;2023-02-13T01:13:18;8.20;99.90
8463;DHT22;4268;52.506;13.462;2023-02-13T01:15:45;8.20;99.90
8463;DHT22;4268;52.506;13.462;2023-02-13T01:18:15;8.10;99.90
8463;DHT22;4268;52.506;13.462;2023-02-13T01:20:42;8.10;99.90
8463;DHT22;4268;52.506;13.462;2023-02-13T01:23:11;8.10;99.90
8463;DHT22;4268;52.506;13.462;2023-02-13T01:25:42;8.10;99.90
8463;DHT22;4268;52.506;13.462;2023-02-13T01:28:08;8.10;99.90
8463;DHT22;4268;52.506;13.462;2023-02-13T01:30:34;8.10;99.90
8463;DHT22;4268;52.506;13.462;2023-02-13T01:32:59;8.10;99.90
8463;DHT22;4268;52.506;13.462;2023-02-13T01:35:25;8.10;99.90
8463;DHT22;4268;52.506;13.462;2023-02-13T01:37:50;8.10;99.90
8463;DHT22;4268;52.506;13.462;2023-02-13T01:40:16;8.10;99.90
8463;DHT22;4268;52.506;13.462;2023-02-13T01:42:42;8.10;99.90
8463;DHT22;4268;52.506;13.462;2023-02-13T01:45:26;8.10;99.90
8463;DHT22;4268;52.506;13.462;2023-02-13T01:48:02;8.10;99.90
8463;DHT22;4268;52.506;13.462;2023-02-13T01:50:42;8.10;99.90
8463;DHT22;4268;52.506;13.462;2023-02-13T01:53:16;8.10;99.90
8463;DHT22;4268;52.506;13.462;2023-02-13T01:55:46;8.00;99.90
8463;DHT22;4268;52.506;13.462;2023-02-13T01:58:17;8.10;99.90
8463;DHT22;4268;52.506;13.462;2023-02-13T02:00:45;8.00;99.90
8463;DHT22;4268;52.506;13.462;2023-02-13T02:03:30;8.00;99.90
8463;DHT22;4268;52.506;13.462;2023-02-13T02:05:59;8.10;99.90
8463;DHT22;4268;52.506;13.462;2023-02-13T02:08:25;8.00;99.90
8463;DHT22;4268;52.506;13.462;2023-02-13T02:10:53;8.00;99.90
8463;DHT22;4268;52.506;13.462;2023-02-13T02:13:20;8.00;99.90
8463;DHT22;4268;52.506;13.462;2023-02-13T02:15:47;8.00;99.90
8463;DHT22;4268;52.506;13.462;2023-02-13T02:18:18;8.00;99.90
8463;DHT22;4268;52.506;13.462;2023-02-13T02:23:58;8.00;99.90
8463;DHT22;4268;52.506;13.462;2023-02-13T02:35:13;7.90;99.90
8463;DHT22;4268;52.506;13.462;2023-02-13T02:48:50;7.90;99.90
8463;DHT22;4268;52.506;13.462;2023-02-13T02:52:02;7.90;99.90
8463;DHT22;4268;52.506;13.462;2023-02-13T02:54:37;7.90;99.90
8463;DHT22;4268;52.506;13.462;2023-02-13T02:57:26;7.90;99.90
8463;DHT22;4268;52.506;13.462;2023-02-13T03:00:18;7.90;99.90
8463;DHT22;4268;52.506;13.462;2023-02-13T03:03:18;7.80;99.90
8463;DHT22;4268;52.506;13.462;2023-02-13T03:06:11;7.80;99.90
8463;DHT22;4268;52.506;13.462;2023-02-13T03:08:41;7.80;99.90
8463;DHT22;4268;52.506;13.462;2023-02-13T03:11:26;7.80;99.90
8463;DHT22;4268;52.506;13.462;2023-02-13T03:14:14;7.80;99.90
8463;DHT22;4268;52.506;13.462;2023-02-13T03:16:41;7.80;99.90
8463;DHT22;4268;52.506;13.462;2023-02-13T03:19:46;7.80;99.90
8463;DHT22;4268;52.506;13.462;2023-02-13T03:22:57;7.80;99.90
8463;DHT22;4268;52.506;13.462;2023-02-13T03:25:31;7.80;99.90
8463;DHT22;4268;52.506;13.462;2023-02-13T03:28:14;7.80;99.90
8463;DHT22;4268;52.506;13.462;2023-02-13T03:31:50;7.80;99.90
8463;DHT22;4268;52.506;13.462;2023-02-13T03:34:23;7.80;99.90
8463;DHT22;4268;52.506;13.462;2023-02-13T03:36:57;7.70;99.90
8463;DHT22;4268;52.506;13.462;2023-02-13T03:40:02;7.70;99.90
8463;DHT22;4268;52.506;13.462;2023-02-13T03:42:40;7.70;99.90
8463;DHT22;4268;52.506;13.462;2023-02-13T03:45:32;8.50;99.90
8463;DHT22;4268;52.506;13.462;2023-02-13T03:48:21;7.70;99.90
8463;DHT22;4268;52.506;13.462;2023-02-13T03:51:07;7.70;99.90
8463;DHT22;4268;52.506;13.462;2023-02-13T03:53:35;7.70;99.90
8463;DHT22;4268;52.506;13.462;2023-02-13T03:56:03;7.70;99.90
8463;DHT22;4268;52.506;13.462;2023-02-13T03:58:51;7.70;99.90
8463;DHT22;4268;52.506;13.462;2023-02-13T04:01:37;7.70;99.90
8463;DHT22;4268;52.506;13.462;2023-02-13T04:04:10;7.70;99.90
8463;DHT22;4268;52.506;13.462;2023-02-13T04:06:44;7.70;99.90
8463;DHT22;4268;52.506;13.462;2023-02-13T04:09:10;7.70;99.90
8463;DHT22;4268;52.506;13.462;2023-02-13T04:11:52;7.70;99.90
8463;DHT22;4268;52.506;13.462;2023-02-13T04:14:23;7.70;99.90
8463;DHT22;4268;52.506;13.462;2023-02-13T04:19:50;7.60;99.90
8463;DHT22;4268;52.506;13.462;2023-02-13T04:22:15;7.60;99.90
8463;DHT22;4268;52.506;13.462;2023-02-13T04:24:41;7.60;99.90
8463;DHT22;4268;52.506;13.462;2023-02-13T04:27:06;7.60;99.90
8463;DHT22;4268;52.506;13.462;2023-02-13T04:29:32;7.60;99.90
8463;DHT22;4268;52.506;13.462;2023-02-13T04:31:57;7.60;99.90
8463;DHT22;4268;52.506;13.462;2023-02-13T04:34:23;7.60;99.90
8463;DHT22;4268;52.506;13.462;2023-02-13T04:36:48;7.60;99.90
8463;DHT22;4268;52.506;13.462;2023-02-13T04:39:14;7.60;99.90
8463;DHT22;4268;52.506;13.462;2023-02-13T04:41:39;7.60;99.90
8463;DHT22;4268;52.506;13.462;2023-02-13T04:44:05;7.60;99.90
8463;DHT22;4268;52.506;13.462;2023-02-13T04:46:30;7.60;99.90
8463;DHT22;4268;52.506;13.462;2023-02-13T04:48:56;7.60;99.90
8463;DHT22;4268;52.506;13.462;2023-02-13T04:51:21;7.60;99.90
8463;DHT22;4268;52.506;13.462;2023-02-13T04:53:47;7.60;99.90
8463;DHT22;4268;52.506;13.462;2023-02-13T04:56:12;7.60;99.90
8463;DHT22;4268;52.506;13.462;2023-02-13T04:58:38;7.70;99.90
8463;DHT22;4268;52.506;13.462;2023-02-13T05:01:14;7.70;99.90
8463;DHT22;4268;52.506;13.462;2023-02-13T05:03:40;7.70;99.90
8463;DHT22;4268;52.506;13.462;2023-02-13T05:06:06;7.70;99.90
8463;DHT22;4268;52.506;13.462;2023-02-13T05:08:32;7.70;99.90
8463;DHT22;4268;52.506;13.462;2023-02-13T05:10:57;7.70;99.90
8463;DHT22;4268;52.506;13.462;2023-02-13T05:13:23;7.70;99.90
8463;DHT22;4268;52.506;13.462;2023-02-13T05:15:48;7.70;99.90
8463;DHT22;4268;52.506;13.462;2023-02-13T05:18:13;7.70;99.90
8463;DHT22;4268;52.506;13.462;2023-02-13T05:20:40;7.70;99.90
8463;DHT22;4268;52.506;13.462;2023-02-13T05:23:12;7.70;99.90
8463;DHT22;4268;52.506;13.462;2023-02-13T05:25:47;7.70;99.90
8463;DHT22;4268;52.506;13.462;2023-02-13T05:28:13;7.70;99.90
8463;DHT22;4268;52.506;13.462;2023-02-13T05:30:58;7.70;99.90
8463;DHT22;4268;52.506;13.462;2023-02-13T05:33:23;7.70;99.90
8463;DHT22;4268;52.506;13.462;2023-02-13T05:35:49;7.70;99.90
8463;DHT22;4268;52.506;13.462;2023-02-13T05:38:14;7.60;99.90
8463;DHT22;4268;52.506;13.462;2023-02-13T05:40:40;7.70;99.90
8463;DHT22;4268;52.506;13.462;2023-02-13T05:43:05;7.60;99.90
8463;DHT22;4268;52.506;13.462;2023-02-13T05:45:31;7.60;99.90
8463;DHT22;4268;52.506;13.462;2023-02-13T05:47:56;7.60;99.90
8463;DHT22;4268;52.506;13.462;2023-02-13T05:50:21;7.70;99.90
8463;DHT22;4268;52.506;13.462;2023-02-13T05:52:47;7.60;99.90
8463;DHT22;4268;52.506;13.462;2023-02-13T05:55:12;7.70;99.90
8463;DHT22;4268;52.506;13.462;2023-02-13T05:57:38;7.70;99.90
8463;DHT22;4268;52.506;13.462;2023-02-13T06:00:04;7.70;99.90
8463;DHT22;4268;52.506;13.462;2023-02-13T06:02:30;7.70;99.90
8463;DHT22;4268;52.506;13.462;2023-02-13T06:04:55;7.70;99.90
8463;DHT22;4268;52.506;13.462;2023-02-13T06:07:21;7.70;99.90
8463;DHT22;4268;52.506;13.462;2023-02-13T06:09:46;7.70;99.90
8463;DHT22;4268;52.506;13.462;2023-02-13T06:12:12;7.70;99.90
8463;DHT22;4268;52.506;13.462;2023-02-13T06:14:37;7.70;99.90
8463;DHT22;4268;52.506;13.462;2023-02-13T06:17:03;7.70;99.90
8463;DHT22;4268;52.506;13.462;2023-02-13T06:19:28;7.70;99.90
8463;DHT22;4268;52.506;13.462;2023-02-13T06:21:54;7.70;99.90
8463;DHT22;4268;52.506;13.462;2023-02-13T06:24:19;7.70;99.90
8463;DHT22;4268;52.506;13.462;2023-02-13T06:26:45;7.80;99.90
8463;DHT22;4268;52.506;13.462;2023-02-13T06:29:10;7.70;99.90
8463;DHT22;4268;52.506;13.462;2023-02-13T06:31:37;7.70;99.90
8463;DHT22;4268;52.506;13.462;2023-02-13T06:34:02;7.70;99.90
8463;DHT22;4268;52.506;13.462;2023-02-13T06:36:28;7.70;99.90
8463;DHT22;4268;52.506;13.462;2023-02-13T06:38:53;7.70;99.90
8463;DHT22;4268;52.506;13.462;2023-02-13T06:41:19;7.70;99.90
8463;DHT22;4268;52.506;13.462;2023-02-13T06:43:44;7.80;99.90
8463;DHT22;4268;52.506;13.462;2023-02-13T06:46:10;7.70;99.90
8463;DHT22;4268;52.506;13.462;2023-02-13T06:48:36;7.80;99.90
8463;DHT22;4268;52.506;13.462;2023-02-13T06:51:01;7.80;99.90
8463;DHT22;4268;52.506;13.462;2023-02-13T06:53:28;7.80;99.90
8463;DHT22;4268;52.506;13.462;2023-02-13T06:55:54;7.80;99.90
8463;DHT22;4268;52.506;13.462;2023-02-13T06:58:20;7.80;99.90
8463;DHT22;4268;52.506;13.462;2023-02-13T07:00:46;7.80;99.90
8463;DHT22;4268;52.506;13.462;2023-02-13T07:03:12;7.80;99.90
8463;DHT22;4268;52.506;13.462;2023-02-13T07:05:42;7.90;99.90
8463;DHT22;4268;52.506;13.462;2023-02-13T07:08:09;7.80;99.90
8463;DHT22;4268;52.506;13.462;2023-02-13T07:10:41;7.90;99.90
8463;DHT22;4268;52.506;13.462;2023-02-13T07:13:08;7.90;99.90
8463;DHT22;4268;52.506;13.462;2023-02-13T07:15:34;7.90;99.90
8463;DHT22;4268;52.506;13.462;2023-02-13T07:18:00;7.90;99.90
8463;DHT22;4268;52.506;13.462;2023-02-13T07:20:26;7.90;99.90
8463;DHT22;4268;52.506;13.462;2023-02-13T07:22:52;7.90;99.90
8463;DHT22;4268;52.506;13.462;2023-02-13T07:25:18;7.90;99.90
8463;DHT22;4268;52.506;13.462;2023-02-13T07:27:44;7.90;99.90
8463;DHT22;4268;52.506;13.462;2023-02-13T07:30:10;8.00;99.90
8463;DHT22;4268;52.506;13.462;2023-02-13T07:32:35;8.00;99.90
8463;DHT22;4268;52.506;13.462;2023-02-13T07:35:01;8.00;99.90
8463;DHT22;4268;52.506;13.462;2023-02-13T07:37:28;8.00;99.90
8463;DHT22;4268;52.506;13.462;2023-02-13T07:39:53;8.00;99.90
8463;DHT22;4268;52.506;13.462;2023-02-13T07:42:19;8.00;99.90
8463;DHT22;4268;52.506;13.462;2023-02-13T07:44:45;8.00;99.90
8463;DHT22;4268;52.506;13.462;2023-02-13T07:47:10;8.80;99.90
8463;DHT22;4268;52.506;13.462;2023-02-13T07:49:36;7.40;99.90
8463;DHT22;4268;52.506;13.462;2023-02-13T07:52:03;8.10;99.90
8463;DHT22;4268;52.506;13.462;2023-02-13T07:54:28;8.10;99.90
8463;DHT22;4268;52.506;13.462;2023-02-13T07:56:54;8.10;99.90
8463;DHT22;4268;52.506;13.462;2023-02-13T07:59:20;8.10;99.90
8463;DHT22;4268;52.506;13.462;2023-02-13T08:01:45;8.10;99.90
8463;DHT22;4268;52.506;13.462;2023-02-13T08:04:11;8.10;99.90
8463;DHT22;4268;52.506;13.462;2023-02-13T08:06:41;8.20;99.90
8463;DHT22;4268;52.506;13.462;2023-02-13T08:09:07;8.20;99.90
8463;DHT22;4268;52.506;13.462;2023-02-13T08:11:52;8.20;99.90
8463;DHT22;4268;52.506;13.462;2023-02-13T08:14:23;8.20;99.90
8463;DHT22;4268;52.506;13.462;2023-02-13T08:16:49;8.20;99.90
8463;DHT22;4268;52.506;13.462;2023-02-13T08:19:14;8.20;99.90
8463;DHT22;4268;52.506;13.462;2023-02-13T08:21:40;8.20;99.90
8463;DHT22;4268;52.506;13.462;2023-02-13T08:24:06;8.20;99.90
8463;DHT22;4268;52.506;13.462;2023-02-13T08:26:32;8.20;99.90
8463;DHT22;4268;52.506;13.462;2023-02-13T08:28:58;8.30;99.90
8463;DHT22;4268;52.506;13.462;2023-02-13T08:31:24;8.30;99.90
8463;DHT22;4268;52.506;13.462;2023-02-13T08:33:49;8.30;99.90
8463;DHT22;4268;52.506;13.462;2023-02-13T08:36:15;8.30;99.90
8463;DHT22;4268;52.506;13.462;2023-02-13T08:38:41;8.40;99.90
8463;DHT22;4268;52.506;13.462;2023-02-13T08:41:07;8.40;99.90
8463;DHT22;4268;52.506;13.462;2023-02-13T08:43:32;8.40;99.90
8463;DHT22;4268;52.506;13.462;2023-02-13T08:45:58;8.50;99.90
8463;DHT22;4268;52.506;13.462;2023-02-13T08:48:25;8.50;99.90
8463;DHT22;4268;52.506;13.462;2023-02-13T08:50:51;8.50;99.90
8463;DHT22;4268;52.506;13.462;2023-02-13T08:53:16;8.50;99.90
8463;DHT22;4268;52.506;13.462;2023-02-13T08:55:42;8.60;99.90
8463;DHT22;4268;52.506;13.462;2023-02-13T08:58:07;8.50;99.90
8463;DHT22;4268;52.506;13.462;2023-02-13T09:00:33;8.60;99.90
8463;DHT22;4268;52.506;13.462;2023-02-13T09:03:02;8.60;99.90
8463;DHT22;4268;52.506;13.462;2023-02-13T09:05:29;8.60;99.90
8463;DHT22;4268;52.506;13.462;2023-02-13T09:07:58;8.60;99.90
8463;DHT22;4268;52.506;13.462;2023-02-13T09:10:24;8.60;99.90
8463;DHT22;4268;52.506;13.462;2023-02-13T09:12:53;8.70;99.90
8463;DHT22;4268;52.506;13.462;2023-02-13T09:15:18;8.70;99.90
8463;DHT22;4268;52.506;13.462;2023-02-13T09:17:44;8.70;99.90
8463;DHT22;4268;52.506;13.462;2023-02-13T09:20:10;8.60;99.90
8463;DHT22;4268;52.506;13.462;2023-02-13T09:22:41;8.60;99.90
8463;DHT22;4268;52.506;13.462;2023-02-13T09:25:07;8.60;99.90
8463;DHT22;4268;52.506;13.462;2023-02-13T09:27:33;8.60;99.90
8463;DHT22;4268;52.506;13.462;2023-02-13T09:30:00;9.40;99.90
8463;DHT22;4268;52.506;13.462;2023-02-13T09:32:26;8.60;99.90
8463;DHT22;4268;52.506;13.462;2023-02-13T09:34:52;8.60;99.90
8463;DHT22;4268;52.506;13.462;2023-02-13T09:37:17;8.60;99.90
8463;DHT22;4268;52.506;13.462;2023-02-13T09:39:43;8.70;99.90
8463;DHT22;4268;52.506;13.462;2023-02-13T09:42:18;8.60;99.90
8463;DHT22;4268;52.506;13.462;2023-02-13T09:44:45;8.60;99.90
8463;DHT22;4268;52.506;13.462;2023-02-13T09:47:29;8.60;99.90
8463;DHT22;4268;52.506;13.462;2023-02-13T09:50:20;8.60;99.90
8463;DHT22;4268;52.506;13.462;2023-02-13T09:52:45;8.60;99.90
8463;DHT22;4268;52.506;13.462;2023-02-13T09:55:16;8.60;99.90
8463;DHT22;4268;52.506;13.462;2023-02-13T10:00:19;8.50;99.90
8463;DHT22;4268;52.506;13.462;2023-02-13T10:16:24;8.40;99.90
8463;DHT22;4268;52.506;13.462;2023-02-13T10:18:56;8.40;99.90
8463;DHT22;4268;52.506;13.462;2023-02-13T10:21:27;8.50;99.90
8463;DHT22;4268;52.506;13.462;2023-02-13T10:24:05;8.40;99.90
8463;DHT22;4268;52.506;13.462;2023-02-13T10:26:34;8.50;99.90
8463;DHT22;4268;52.506;13.462;2023-02-13T10:29:18;8.50;99.90
8463;DHT22;4268;52.506;13.462;2023-02-13T10:32:10;8.60;99.90
8463;DHT22;4268;52.506;13.462;2023-02-13T10:34:43;8.60;99.90
8463;DHT22;4268;52.506;13.462;2023-02-13T10:37:18;8.50;99.90
8463;DHT22;4268;52.506;13.462;2023-02-13T10:39:47;8.50;99.90
8463;DHT22;4268;52.506;13.462;2023-02-13T10:42:33;8.50;99.90
8463;DHT22;4268;52.506;13.462;2023-02-13T10:50:42;8.60;99.90
8463;DHT22;4268;52.506;13.462;2023-02-13T10:55:58;8.60;99.90
8463;DHT22;4268;52.506;13.462;2023-02-13T10:58:41;8.70;99.90
8463;DHT22;4268;52.506;13.462;2023-02-13T11:01:19;8.70;99.90
8463;DHT22;4268;52.506;13.462;2023-02-13T11:04:10;8.80;99.90
8463;DHT22;4268;52.506;13.462;2023-02-13T11:06:40;8.80;99.90
8463;DHT22;4268;52.506;13.462;2023-02-13T11:09:08;8.80;99.90
8463;DHT22;4268;52.506;13.462;2023-02-13T11:11:39;8.80;99.90
8463;DHT22;4268;52.506;13.462;2023-02-13T11:14:13;10.70;99.90
8463;DHT22;4268;52.506;13.462;2023-02-13T11:17:00;8.90;99.90
8463;DHT22;4268;52.506;13.462;2023-02-13T11:19:38;9.10;99.90
8463;DHT22;4268;52.506;13.462;2023-02-13T11:22:12;9.00;99.90
8463;DHT22;4268;52.506;13.462;2023-02-13T11:24:51;9.00;99.90
8463;DHT22;4268;52.506;13.462;2023-02-13T11:27:23;9.00;99.90
8463;DHT22;4268;52.506;13.462;2023-02-13T11:30:04;9.00;99.90
8463;DHT22;4268;52.506;13.462;2023-02-13T11:32:32;8.90;99.90
8463;DHT22;4268;52.506;13.462;2023-02-13T11:35:24;8.90;99.90
8463;DHT22;4268;52.506;13.462;2023-02-13T11:38:11;8.90;99.90
8463;DHT22;4268;52.506;13.462;2023-02-13T11:40:39;9.00;99.90
8463;DHT22;4268;52.506;13.462;2023-02-13T11:43:07;9.00;99.90
8463;DHT22;4268;52.506;13.462;2023-02-13T11:45:33;9.00;99.90
8463;DHT22;4268;52.506;13.462;2023-02-13T11:47:59;9.00;99.90
8463;DHT22;4268;52.506;13.462;2023-02-13T11:50:27;9.00;99.90
8463;DHT22;4268;52.506;13.462;2023-02-13T11:52:57;9.00;99.90
8463;DHT22;4268;52.506;13.462;2023-02-13T11:55:35;9.00;99.90
8463;DHT22;4268;52.506;13.462;2023-02-13T11:58:23;9.00;99.90
8463;DHT22;4268;52.506;13.462;2023-02-13T12:00:49;9.00;99.90
8463;DHT22;4268;52.506;13.462;2023-02-13T12:03:31;9.00;99.90
8463;DHT22;4268;52.506;13.462;2023-02-13T12:06:09;9.00;99.90
8463;DHT22;4268;52.506;13.462;2023-02-13T12:08:40;9.00;99.90
8463;DHT22;4268;52.506;13.462;2023-02-13T12:13:59;9.00;99.90
8463;DHT22;4268;52.506;13.462;2023-02-13T12:16:37;9.00;99.90
8463;DHT22;4268;52.506;13.462;2023-02-13T12:19:10;9.00;99.90
8463;DHT22;4268;52.506;13.462;2023-02-13T12:21:57;9.00;99.90
8463;DHT22;4268;52.506;13.462;2023-02-13T12:24:35;9.00;99.90
8463;DHT22;4268;52.506;13.462;2023-02-13T12:32:34;9.00;99.90
8463;DHT22;4268;52.506;13.462;2023-02-13T12:35:29;9.00;99.90
8463;DHT22;4268;52.506;13.462;2023-02-13T12:41:06;9.00;99.90
8463;DHT22;4268;52.506;13.462;2023-02-13T12:58:46;9.10;99.90
8463;DHT22;4268;52.506;13.462;2023-02-13T13:01:26;9.10;99.90
8463;DHT22;4268;52.506;13.462;2023-02-13T13:15:44;9.00;99.90
8463;DHT22;4268;52.506;13.462;2023-02-13T13:18:21;9.00;99.90
8463;DHT22;4268;52.506;13.462;2023-02-13T13:20:56;9.00;99.90
8463;DHT22;4268;52.506;13.462;2023-02-13T13:23:36;9.00;99.90
8463;DHT22;4268;52.506;13.462;2023-02-13T13:28:43;8.90;99.90
8463;DHT22;4268;52.506;13.462;2023-02-13T13:31:11;8.90;99.90
8463;DHT22;4268;52.506;13.462;2023-02-13T13:33:40;8.80;99.90
8463;DHT22;4268;52.506;13.462;2023-02-13T13:41:40;8.90;99.90
8463;DHT22;4268;52.506;13.462;2023-02-13T13:47:26;8.80;99.90
8463;DHT22;4268;52.506;13.462;2023-02-13T13:50:00;8.80;99.90
8463;DHT22;4268;52.506;13.462;2023-02-13T13:52:33;8.80;99.90
8463;DHT22;4268;52.506;13.462;2023-02-13T13:55:02;8.80;99.90
8463;DHT22;4268;52.506;13.462;2023-02-13T14:05:23;8.80;99.90
8463;DHT22;4268;52.506;13.462;2023-02-13T14:15:57;8.80;99.90
8463;DHT22;4268;52.506;13.462;2023-02-13T14:18:24;8.70;99.90
8463;DHT22;4268;52.506;13.462;2023-02-13T14:20:52;8.60;99.90
8463;DHT22;4268;52.506;13.462;2023-02-13T14:34:03;8.60;99.90
8463;DHT22;4268;52.506;13.462;2023-02-13T14:36:32;8.60;99.90
8463;DHT22;4268;52.506;13.462;2023-02-13T14:39:04;8.60;99.90
8463;DHT22;4268;52.506;13.462;2023-02-13T14:44:21;8.60;99.90
8463;DHT22;4268;52.506;13.462;2023-02-13T14:46:49;8.60;99.90
8463;DHT22;4268;52.506;13.462;2023-02-13T14:49:31;8.70;99.90
8463;DHT22;4268;52.506;13.462;2023-02-13T14:52:02;8.60;99.90
8463;DHT22;4268;52.506;13.462;2023-02-13T14:54:41;8.60;99.90
8463;DHT22;4268;52.506;13.462;2023-02-13T14:58:12;8.60;99.90
8463;DHT22;4268;52.506;13.462;2023-02-13T15:00:22;8.60;99.90
8463;DHT22;4268;52.506;13.462;2023-02-13T15:02:53;8.60;99.90
8463;DHT22;4268;52.506;13.462;2023-02-13T15:05:20;8.50;99.90
8463;DHT22;4268;52.506;13.462;2023-02-13T15:07:49;8.50;99.90
8463;DHT22;4268;52.506;13.462;2023-02-13T15:10:54;8.50;99.90
8463;DHT22;4268;52.506;13.462;2023-02-13T15:13:25;8.50;99.90
8463;DHT22;4268;52.506;13.462;2023-02-13T15:16:02;8.40;99.90
8463;DHT22;4268;52.506;13.462;2023-02-13T15:18:49;8.40;99.90
8463;DHT22;4268;52.506;13.462;2023-02-13T15:21:20;8.40;99.90
8463;DHT22;4268;52.506;13.462;2023-02-13T15:23:52;8.50;99.90
8463;DHT22;4268;52.506;13.462;2023-02-13T15:26:22;8.40;99.90
8463;DHT22;4268;52.506;13.462;2023-02-13T15:29:03;8.40;99.90
8463;DHT22;4268;52.506;13.462;2023-02-13T15:31:31;8.40;99.90
8463;DHT22;4268;52.506;13.462;2023-02-13T15:33:57;8.40;99.90
8463;DHT22;4268;52.506;13.462;2023-02-13T15:36:25;8.40;99.90
8463;DHT22;4268;52.506;13.462;2023-02-13T15:39:04;8.40;99.90
8463;DHT22;4268;52.506;13.462;2023-02-13T15:41:39;8.30;99.90
8463;DHT22;4268;52.506;13.462;2023-02-13T15:44:12;8.30;99.90
8463;DHT22;4268;52.506;13.462;2023-02-13T15:46:41;8.30;99.90
8463;DHT22;4268;52.506;13.462;2023-02-13T15:49:11;8.30;99.90
8463;DHT22;4268;52.506;13.462;2023-02-13T15:51:38;8.30;99.90
8463;DHT22;4268;52.506;13.462;2023-02-13T15:54:06;8.20;99.90
8463;DHT22;4268;52.506;13.462;2023-02-13T15:56:44;8.20;99.90
8463;DHT22;4268;52.506;13.462;2023-02-13T15:59:11;8.20;99.90
8463;DHT22;4268;52.506;13.462;2023-02-13T16:01:39;8.20;99.90
8463;DHT22;4268;52.506;13.462;2023-02-13T16:04:09;8.20;99.90
8463;DHT22;4268;52.506;13.462;2023-02-13T16:06:36;8.10;99.90
8463;DHT22;4268;52.506;13.462;2023-02-13T16:09:03;8.10;99.90
8463;DHT22;4268;52.506;13.462;2023-02-13T16:11:35;8.10;99.90
8463;DHT22;4268;52.506;13.462;2023-02-13T16:14:22;8.00;99.90
8463;DHT22;4268;52.506;13.462;2023-02-13T16:17:06;8.00;99.90
8463;DHT22;4268;52.506;13.462;2023-02-13T16:20:01;8.00;99.90
8463;DHT22;4268;52.506;13.462;2023-02-13T16:22:36;8.00;99.90
8463;DHT22;4268;52.506;13.462;2023-02-13T16:25:24;8.00;99.90
8463;DHT22;4268;52.506;13.462;2023-02-13T16:27:54;8.00;99.90
8463;DHT22;4268;52.506;13.462;2023-02-13T16:35:40;7.90;99.90
8463;DHT22;4268;52.506;13.462;2023-02-13T16:38:30;7.90;99.90
8463;DHT22;4268;52.506;13.462;2023-02-13T16:40:59;7.90;99.90
8463;DHT22;4268;52.506;13.462;2023-02-13T16:48:43;7.90;99.90
8463;DHT22;4268;52.506;13.462;2023-02-13T16:51:10;7.90;99.90
8463;DHT22;4268;52.506;13.462;2023-02-13T16:53:36;7.90;99.90
8463;DHT22;4268;52.506;13.462;2023-02-13T16:56:07;7.90;99.90
8463;DHT22;4268;52.506;13.462;2023-02-13T16:58:33;7.90;99.90
8463;DHT22;4268;52.506;13.462;2023-02-13T17:00:59;7.90;99.90
8463;DHT22;4268;52.506;13.462;2023-02-13T17:03:31;7.90;99.90
8463;DHT22;4268;52.506;13.462;2023-02-13T17:06:00;7.90;99.90
8463;DHT22;4268;52.506;13.462;2023-02-13T17:08:26;7.90;99.90
8463;DHT22;4268;52.506;13.462;2023-02-13T17:11:01;7.80;99.90
8463;DHT22;4268;52.506;13.462;2023-02-13T17:13:28;7.90;99.90
8463;DHT22;4268;52.506;13.462;2023-02-13T17:15:53;7.90;99.90
8463;DHT22;4268;52.506;13.462;2023-02-13T17:18:19;7.90;99.90
8463;DHT22;4268;52.506;13.462;2023-02-13T17:20:45;7.90;99.90
8463;DHT22;4268;52.506;13.462;2023-02-13T17:23:15;7.90;99.90
8463;DHT22;4268;52.506;13.462;2023-02-13T17:25:42;7.90;99.90
8463;DHT22;4268;52.506;13.462;2023-02-13T17:28:21;8.00;99.90
8463;DHT22;4268;52.506;13.462;2023-02-13T17:30:51;7.90;99.90
8463;DHT22;4268;52.506;13.462;2023-02-13T17:33:22;7.80;99.90
8463;DHT22;4268;52.506;13.462;2023-02-13T17:35:48;7.80;99.90
8463;DHT22;4268;52.506;13.462;2023-02-13T17:38:14;7.80;99.90
8463;DHT22;4268;52.506;13.462;2023-02-13T17:40:40;7.80;99.90
8463;DHT22;4268;52.506;13.462;2023-02-13T17:43:06;7.80;99.90
8463;DHT22;4268;52.506;13.462;2023-02-13T17:45:33;7.90;99.90
8463;DHT22;4268;52.506;13.462;2023-02-13T17:47:58;7.80;99.90
8463;DHT22;4268;52.506;13.462;2023-02-13T17:50:25;7.70;99.90
8463;DHT22;4268;52.506;13.462;2023-02-13T17:52:51;7.80;99.90
8463;DHT22;4268;52.506;13.462;2023-02-13T17:55:26;7.80;99.90
8463;DHT22;4268;52.506;13.462;2023-02-13T17:57:53;7.80;99.90
8463;DHT22;4268;52.506;13.462;2023-02-13T18:00:21;7.80;99.90
8463;DHT22;4268;52.506;13.462;2023-02-13T18:02:49;7.80;99.90
8463;DHT22;4268;52.506;13.462;2023-02-13T18:05:18;7.80;99.90
8463;DHT22;4268;52.506;13.462;2023-02-13T18:07:44;7.80;99.90
8463;DHT22;4268;52.506;13.462;2023-02-13T18:10:22;7.80;99.90
8463;DHT22;4268;52.506;13.462;2023-02-13T18:12:49;7.80;99.90
8463;DHT22;4268;52.506;13.462;2023-02-13T18:15:14;7.80;99.90
8463;DHT22;4268;52.506;13.462;2023-02-13T18:17:40;7.80;99.90
8463;DHT22;4268;52.506;13.462;2023-02-13T18:20:09;7.90;99.90
8463;DHT22;4268;52.506;13.462;2023-02-13T18:22:35;7.80;99.90
8463;DHT22;4268;52.506;13.462;2023-02-13T18:25:00;7.70;99.90
8463;DHT22;4268;52.506;13.462;2023-02-13T18:27:27;7.70;99.90
8463;DHT22;4268;52.506;13.462;2023-02-13T18:29:54;7.70;99.90
8463;DHT22;4268;52.506;13.462;2023-02-13T18:32:20;7.70;99.90
8463;DHT22;4268;52.506;13.462;2023-02-13T18:34:46;7.70;99.90
8463;DHT22;4268;52.506;13.462;2023-02-13T18:37:12;7.70;99.90
8463;DHT22;4268;52.506;13.462;2023-02-13T18:39:37;7.70;99.90
8463;DHT22;4268;52.506;13.462;2023-02-13T18:42:03;7.70;99.90
8463;DHT22;4268;52.506;13.462;2023-02-13T18:44:29;7.70;99.90